Time;durP1;ratioP1;P1;durP2;ratioP2;P2;SDS_P1;SDS_P2;PMS_P1;PMS_P2;Temp;Humidity;BMP_temperature;BMP_pressure;BME280_temperature;BME280_humidity;BME280_pressure;Samples;Min_cycle;Max_cycle;Signal;HPM_P1;HPM_P2
2022/03/29 00:00:18;;;;;;;;;;;;;;;8.88;72.53;101703.34;5053868;28;19919;-35
2022/03/29 00:02:44;;;;;;;;;;;;;;;8.79;80.28;101707.22;5053171;28;19916;-35
2022/03/29 00:05:09;;;;;;;;;;;;;;;8.72;80.57;101706.34;5054040;28;19920;-35
2022/03/29 00:07:34;;;;;;;;;;;;;;;8.58;80.52;101704.59;5053919;28;19920;-35
2022/03/29 00:10:04;;;;;;;;;;;;;;;8.55;79.29;101700.44;5054235;28;19912;-35
2022/03/29 00:12:30;;;;;;;;;;;;;;;8.52;79.09;101698.94;5053505;28;19913;-35
2022/03/29 00:14:55;;;;;;;;;;;;;;;8.56;79.35;101698.56;5054509;28;19975;-35
2022/03/29 00:17:20;;;;;;;;;;;;;;;8.55;78.59;101697.75;5053964;28;19913;-35
2022/03/29 00:19:45;;;;;;;;;;;;;;;8.52;79.67;101698.13;5053469;28;20369;-35
2022/03/29 00:22:10;;;;;;;;;;;;;;;8.54;77.97;101692.53;5053284;28;19944;-35
2022/03/29 00:24:36;;;;;;;;;;;;;;;8.57;76.90;101692.97;5053186;28;20000;-35
2022/03/29 00:27:01;;;;;;;;;;;;;;;8.58;77.41;101691.09;5053943;28;19913;-35
2022/03/29 00:29:26;;;;;;;;;;;;;;;8.54;80.97;101692.53;5052056;28;20010;-35
2022/03/29 00:31:51;;;;;;;;;;;;;;;8.45;79.69;101686.47;5053191;28;19913;-35
2022/03/29 00:34:16;;;;;;;;;;;;;;;8.42;80.67;101676.91;5053359;28;19952;-35
2022/03/29 00:36:42;;;;;;;;;;;;;;;8.36;82.01;101680.38;5053326;28;19963;-35
2022/03/29 00:39:07;;;;;;;;;;;;;;;8.31;82.71;101679.28;5053298;28;19967;-35
2022/03/29 00:41:32;;;;;;;;;;;;;;;8.30;79.68;101670.38;5053649;28;19924;-35
2022/03/29 00:43:58;;;;;;;;;;;;;;;8.34;78.70;101671.63;5053269;28;20404;-35
2022/03/29 00:46:24;;;;;;;;;;;;;;;8.36;77.74;101666.91;5053013;28;20012;-35
2022/03/29 00:48:49;;;;;;;;;;;;;;;8.37;80.48;101663.19;5053090;28;19913;-35
2022/03/29 00:51:15;;;;;;;;;;;;;;;8.37;78.23;101668.56;5053468;28;19920;-35
2022/03/29 00:53:41;;;;;;;;;;;;;;;8.37;77.94;101660.50;5052899;28;19916;-35
2022/03/29 00:56:07;;;;;;;;;;;;;;;8.38;76.90;101658.63;5053102;28;20396;-35
2022/03/29 00:58:34;;;;;;;;;;;;;;;8.37;76.80;101652.41;5053328;28;19919;-35
2022/03/29 01:01:01;;;;;;;;;;;;;;;8.38;76.66;101647.84;5053099;28;19977;-35
2022/03/29 01:03:26;;;;;;;;;;;;;;;8.39;76.10;101647.63;5053659;28;19916;-35
2022/03/29 01:05:51;;;;;;;;;;;;;;;8.41;75.38;101644.75;5053357;28;20393;-35
2022/03/29 01:08:17;;;;;;;;;;;;;;;8.37;76.50;101647.00;5053697;28;20033;-35
2022/03/29 01:10:45;;;;;;;;;;;;;;;8.30;79.26;101640.72;5052804;28;19912;-35
2022/03/29 01:13:11;;;;;;;;;;;;;;;8.25;79.50;101635.94;5053706;28;20312;-35
2022/03/29 01:15:37;;;;;;;;;;;;;;;8.13;82.85;101637.47;5056324;28;19913;-35
2022/03/29 01:18:05;;;;;;;;;;;;;;;7.95;85.76;101632.59;5056833;28;19966;-35
2022/03/29 01:20:31;;;;;;;;;;;;;;;7.90;84.33;101635.00;5056669;28;20079;-35
2022/03/29 01:22:57;;;;;;;;;;;;;;;7.85;83.74;101639.31;5056812;28;19920;-35
2022/03/29 01:25:27;;;;;;;;;;;;;;;7.84;85.19;101635.78;5056889;28;19912;-35
2022/03/29 01:27:53;;;;;;;;;;;;;;;7.81;82.75;101630.81;5056426;28;20392;-35
2022/03/29 01:30:18;;;;;;;;;;;;;;;7.81;84.60;101630.81;5056907;28;19920;-35
2022/03/29 01:32:45;;;;;;;;;;;;;;;7.75;84.81;101627.00;5056760;28;19913;-35
2022/03/29 01:35:11;;;;;;;;;;;;;;;7.68;87.66;101631.50;5056924;28;20011;-35
2022/03/29 01:37:37;;;;;;;;;;;;;;;7.57;89.35;101625.81;5056612;28;20358;-35
2022/03/29 01:40:09;;;;;;;;;;;;;;;7.49;89.47;101634.84;5056820;28;19971;-35
2022/03/29 01:42:35;;;;;;;;;;;;;;;7.47;87.28;101628.81;5056473;28;19963;-35
2022/03/29 01:45:00;;;;;;;;;;;;;;;7.42;90.05;101626.69;5057273;28;20365;-35
2022/03/29 01:47:26;;;;;;;;;;;;;;;7.44;86.56;101618.44;5056397;28;19913;-35
2022/03/29 01:49:51;;;;;;;;;;;;;;;7.51;86.56;101621.16;5056405;28;19966;-35
2022/03/29 01:52:16;;;;;;;;;;;;;;;7.57;84.35;101620.44;5054662;28;19997;-35
2022/03/29 01:54:41;;;;;;;;;;;;;;;7.56;86.51;101616.03;5056356;28;19920;-35
2022/03/29 01:57:07;;;;;;;;;;;;;;;7.56;84.68;101610.66;5056492;28;19913;-35
2022/03/29 02:00:30;;;;;;;;;;;;;;;7.59;84.82;101602.22;5056420;28;19917;-36
2022/03/29 02:02:17;;;;;;;;;;;;;;;7.52;88.78;101591.41;5055804;28;19925;-35
2022/03/29 02:04:42;;;;;;;;;;;;;;;7.44;88.40;101591.50;5055868;28;19923;-35
2022/03/29 02:07:08;;;;;;;;;;;;;;;7.40;88.13;101595.59;5055903;28;19927;-35
2022/03/29 02:09:33;;;;;;;;;;;;;;;7.30;90.26;101601.31;5055971;28;19927;-35
2022/03/29 02:11:58;;;;;;;;;;;;;;;7.28;89.96;101592.59;5055876;28;19917;-35
2022/03/29 02:14:23;;;;;;;;;;;;;;;7.24;89.29;101585.94;5055811;28;20386;-35
2022/03/29 02:16:49;;;;;;;;;;;;;;;7.21;90.10;101575.53;5055933;28;20404;-36
2022/03/29 02:19:15;;;;;;;;;;;;;;;7.15;91.86;101582.53;5055473;28;20016;-35
2022/03/29 02:21:40;;;;;;;;;;;;;;;7.11;90.45;101580.41;5055990;28;19912;-35
2022/03/29 02:24:06;;;;;;;;;;;;;;;7.17;87.76;101576.94;5054317;28;20387;-35
2022/03/29 02:26:31;;;;;;;;;;;;;;;7.24;88.38;101575.19;5054205;28;19913;-35
2022/03/29 02:28:56;;;;;;;;;;;;;;;7.23;87.42;101577.03;5055818;28;19913;-35
2022/03/29 02:31:21;;;;;;;;;;;;;;;7.12;91.66;101579.38;5056348;28;19919;-35
2022/03/29 02:33:47;;;;;;;;;;;;;;;7.13;91.59;101573.81;5055450;28;19919;-35
2022/03/29 02:36:13;;;;;;;;;;;;;;;7.13;90.31;101564.94;5055753;28;19913;-35
2022/03/29 02:38:38;;;;;;;;;;;;;;;7.08;91.55;101562.81;5055472;28;19959;-35
2022/03/29 02:41:03;;;;;;;;;;;;;;;7.03;92.66;101559.84;5055663;28;19917;-35
2022/03/29 02:43:28;;;;;;;;;;;;;;;6.96;93.16;101557.06;5055319;28;19917;-35
2022/03/29 02:45:53;;;;;;;;;;;;;;;6.91;92.61;101556.81;5055266;28;19970;-35
2022/03/29 02:48:19;;;;;;;;;;;;;;;6.94;92.06;101552.94;5055590;28;19919;-35
2022/03/29 02:50:44;;;;;;;;;;;;;;;6.90;92.65;101541.72;5055657;28;19935;-35
2022/03/29 02:53:11;;;;;;;;;;;;;;;6.95;90.92;101539.28;5055071;28;19952;-35
2022/03/29 02:55:36;;;;;;;;;;;;;;;7.02;90.09;101543.88;5055400;28;19985;-35
2022/03/29 02:58:01;;;;;;;;;;;;;;;7.02;92.17;101535.81;5054683;28;19913;-35
2022/03/29 03:00:27;;;;;;;;;;;;;;;7.00;92.86;101538.72;5055195;28;19912;-35
2022/03/29 03:02:54;;;;;;;;;;;;;;;6.95;92.38;101533.06;5055111;28;20357;-35
2022/03/29 03:05:24;;;;;;;;;;;;;;;6.89;92.53;101526.59;5055377;28;19913;-35
2022/03/29 03:07:49;;;;;;;;;;;;;;;6.87;91.90;101523.25;5054664;28;20408;-35
2022/03/29 03:10:14;;;;;;;;;;;;;;;6.85;93.10;101525.31;5053280;28;19926;-35
2022/03/29 03:12:41;;;;;;;;;;;;;;;6.84;93.24;101526.34;5054725;28;19931;-35
2022/03/29 03:15:07;;;;;;;;;;;;;;;6.75;93.62;101516.72;5054951;28;20384;-35
2022/03/29 03:17:32;;;;;;;;;;;;;;;6.69;93.31;101522.84;5054559;28;19912;-35
2022/03/29 03:19:57;;;;;;;;;;;;;;;6.70;92.79;101525.34;5054351;28;19926;-35
2022/03/29 03:22:23;;;;;;;;;;;;;;;6.73;93.01;101516.06;5054529;28;19924;-35
2022/03/29 03:24:48;;;;;;;;;;;;;;;6.68;93.50;101511.25;5054511;28;19913;-35
2022/03/29 03:27:16;;;;;;;;;;;;;;;6.62;94.63;101512.00;5054394;28;19939;-35
2022/03/29 03:29:41;;;;;;;;;;;;;;;6.59;94.61;101514.25;5054134;28;19913;-35
2022/03/29 03:32:06;;;;;;;;;;;;;;;6.58;94.29;101518.78;5054309;28;19919;-35
2022/03/29 03:34:32;;;;;;;;;;;;;;;6.60;93.83;101518.63;5055135;28;20362;-35
2022/03/29 03:36:58;;;;;;;;;;;;;;;6.63;92.45;101521.72;5054411;28;19936;-35
2022/03/29 03:39:24;;;;;;;;;;;;;;;6.64;93.94;101515.38;5053635;28;19917;-35
2022/03/29 03:41:49;;;;;;;;;;;;;;;6.55;94.09;101515.66;5054445;28;20046;-35
2022/03/29 03:44:14;;;;;;;;;;;;;;;6.56;93.29;101517.31;5054085;28;19919;-35
2022/03/29 03:46:40;;;;;;;;;;;;;;;6.45;95.36;101514.09;5053464;28;19999;-35
2022/03/29 03:49:05;;;;;;;;;;;;;;;6.39;95.71;101509.47;5053971;28;19917;-35
2022/03/29 03:51:30;;;;;;;;;;;;;;;6.37;95.66;101507.97;5054544;28;20019;-35
2022/03/29 03:53:55;;;;;;;;;;;;;;;6.24;97.88;101505.94;5053903;28;19919;-35
2022/03/29 03:56:21;;;;;;;;;;;;;;;6.23;97.08;101504.28;5054491;28;20345;-35
2022/03/29 03:58:46;;;;;;;;;;;;;;;6.22;96.04;101499.13;5054135;28;19913;-35
2022/03/29 04:01:12;;;;;;;;;;;;;;;6.16;96.98;101506.06;5054459;28;19912;-35
2022/03/29 04:03:37;;;;;;;;;;;;;;;6.14;97.33;101497.34;5053797;28;19935;-35
2022/03/29 04:06:03;;;;;;;;;;;;;;;6.17;96.64;101494.28;5054337;28;19916;-35
2022/03/29 04:08:28;;;;;;;;;;;;;;;6.26;94.87;101501.25;5053866;28;20000;-35
2022/03/29 04:10:53;;;;;;;;;;;;;;;6.30;95.41;101499.03;5053679;28;19917;-35
2022/03/29 04:13:19;;;;;;;;;;;;;;;6.35;94.20;101489.38;5052207;28;19920;-35
2022/03/29 04:15:45;;;;;;;;;;;;;;;6.37;95.00;101487.31;5053739;28;19948;-35
2022/03/29 04:18:10;;;;;;;;;;;;;;;6.26;96.88;101481.59;5053305;28;19913;-35
2022/03/29 04:20:35;;;;;;;;;;;;;;;6.21;97.47;101476.78;5053834;28;19913;-35
2022/03/29 04:23:00;;;;;;;;;;;;;;;6.18;97.14;101475.31;5053724;28;19913;-35
2022/03/29 04:25:26;;;;;;;;;;;;;;;6.08;97.65;101480.13;5053718;28;20317;-35
2022/03/29 04:27:51;;;;;;;;;;;;;;;6.10;96.84;101479.94;5053196;28;20364;-35
2022/03/29 04:30:16;;;;;;;;;;;;;;;6.11;95.97;101478.94;5053435;28;20008;-35
2022/03/29 04:32:41;;;;;;;;;;;;;;;6.13;96.93;101482.25;5053584;28;19921;-35
2022/03/29 04:35:07;;;;;;;;;;;;;;;6.08;98.11;101473.94;5053752;28;20009;-35
2022/03/29 04:37:32;;;;;;;;;;;;;;;6.06;97.76;101475.97;5053171;28;20000;-35
2022/03/29 04:39:58;;;;;;;;;;;;;;;6.00;98.90;101474.84;5053630;28;20344;-35
2022/03/29 04:42:23;;;;;;;;;;;;;;;5.91;99.36;101466.06;5053206;28;19919;-35
2022/03/29 04:44:48;;;;;;;;;;;;;;;5.87;99.91;101464.75;5054014;28;19919;-35
2022/03/29 04:47:13;;;;;;;;;;;;;;;5.87;100.00;101462.06;5053282;28;19920;-35
2022/03/29 04:49:39;;;;;;;;;;;;;;;5.89;99.52;101456.50;5054573;28;20365;-35
2022/03/29 04:52:06;;;;;;;;;;;;;;;5.89;100.00;101453.81;5057388;28;19966;-35
2022/03/29 04:54:31;;;;;;;;;;;;;;;5.72;100.00;101460.38;5057950;28;19935;-35
2022/03/29 04:56:56;;;;;;;;;;;;;;;5.72;100.00;101457.69;5056928;28;19913;-35
2022/03/29 04:59:22;;;;;;;;;;;;;;;5.78;100.00;101456.97;5057543;28;19913;-35
2022/03/29 05:01:47;;;;;;;;;;;;;;;5.89;100.00;101460.00;5057244;28;19979;-35
2022/03/29 05:04:12;;;;;;;;;;;;;;;6.04;99.46;101459.19;5057105;28;19924;-35
2022/03/29 05:06:37;;;;;;;;;;;;;;;6.13;99.00;101453.53;5057184;28;19912;-35
2022/03/29 05:09:03;;;;;;;;;;;;;;;6.10;100.00;101447.72;5057150;28;19995;-35
2022/03/29 05:11:29;;;;;;;;;;;;;;;6.12;100.00;101445.69;5057332;28;19913;-35
2022/03/29 05:13:54;;;;;;;;;;;;;;;6.10;100.00;101447.72;5057296;28;20264;-35
2022/03/29 05:16:20;;;;;;;;;;;;;;;6.12;100.00;101435.78;5056928;28;19950;-35
2022/03/29 05:18:45;;;;;;;;;;;;;;;6.09;100.00;101436.13;5056846;28;19916;-35
2022/03/29 05:21:10;;;;;;;;;;;;;;;5.93;100.00;101433.66;5056740;28;19913;-35
2022/03/29 05:23:36;;;;;;;;;;;;;;;5.87;100.00;101429.84;5056913;28;19919;-35
2022/03/29 05:26:01;;;;;;;;;;;;;;;5.81;100.00;101435.97;5056734;28;19943;-35
2022/03/29 05:28:26;;;;;;;;;;;;;;;5.84;100.00;101432.88;5056302;28;19920;-35
2022/03/29 05:30:51;;;;;;;;;;;;;;;5.93;100.00;101439.03;5056781;28;19967;-35
2022/03/29 05:33:18;;;;;;;;;;;;;;;5.92;100.00;101446.25;5056430;28;19913;-35
2022/03/29 05:35:43;;;;;;;;;;;;;;;5.86;100.00;101427.34;5056727;28;19966;-35
2022/03/29 05:38:08;;;;;;;;;;;;;;;5.90;100.00;101431.31;5056351;28;19956;-35
2022/03/29 05:40:34;;;;;;;;;;;;;;;5.92;100.00;101423.94;5056739;28;19919;-35
2022/03/29 05:42:59;;;;;;;;;;;;;;;6.04;100.00;101429.66;5056125;28;20391;-35
2022/03/29 05:45:25;;;;;;;;;;;;;;;6.15;100.00;101439.94;5056825;28;20363;-35
2022/03/29 05:50:34;;;;;;;;;;;;;;;6.16;100.00;101436.25;5056333;28;20291;-35
2022/03/29 05:53:01;;;;;;;;;;;;;;;6.12;100.00;101429.56;5056113;28;20007;-35
2022/03/29 05:55:26;;;;;;;;;;;;;;;5.98;100.00;101428.56;5056686;28;19971;-35
2022/03/29 05:57:52;;;;;;;;;;;;;;;6.00;100.00;101437.25;5056598;28;19913;-35
2022/03/29 06:00:18;;;;;;;;;;;;;;;6.07;100.00;101434.69;5055702;28;20456;-35
2022/03/29 06:02:43;;;;;;;;;;;;;;;6.01;100.00;101425.53;5055163;28;20011;-35
2022/03/29 06:05:09;;;;;;;;;;;;;;;6.06;100.00;101427.66;5055925;28;20070;-35
2022/03/29 06:07:35;;;;;;;;;;;;;;;6.10;100.00;101426.22;5054537;28;19917;-35
2022/03/29 06:10:03;;;;;;;;;;;;;;;6.15;100.00;101419.31;5056133;28;20379;-35
2022/03/29 06:12:29;;;;;;;;;;;;;;;6.13;100.00;101425.88;5055449;28;19913;-35
2022/03/29 06:14:54;;;;;;;;;;;;;;;5.96;100.00;101429.78;5056327;28;19998;-35
2022/03/29 06:17:19;;;;;;;;;;;;;;;5.97;100.00;101436.81;5055879;28;19913;-35
2022/03/29 06:19:44;;;;;;;;;;;;;;;5.87;100.00;101437.91;5056300;28;19919;-35
2022/03/29 06:22:10;;;;;;;;;;;;;;;5.82;100.00;101442.16;5055683;28;19919;-35
2022/03/29 06:24:35;;;;;;;;;;;;;;;5.72;100.00;101438.91;5055357;28;19949;-35
2022/03/29 06:27:01;;;;;;;;;;;;;;;5.78;100.00;101444.38;5055352;28;19912;-35
2022/03/29 06:29:27;;;;;;;;;;;;;;;5.70;100.00;101441.75;5055695;28;19913;-35
2022/03/29 06:31:52;;;;;;;;;;;;;;;5.81;100.00;101443.19;5055747;28;20304;-35
2022/03/29 06:34:17;;;;;;;;;;;;;;;5.83;100.00;101443.81;5055106;28;19913;-35
2022/03/29 06:36:42;;;;;;;;;;;;;;;5.86;100.00;101438.09;5055956;28;19916;-35
2022/03/29 06:39:10;;;;;;;;;;;;;;;5.85;100.00;101442.59;5055181;28;19952;-35
2022/03/29 06:41:36;;;;;;;;;;;;;;;5.90;100.00;101437.53;5055954;28;19912;-35
2022/03/29 06:44:01;;;;;;;;;;;;;;;5.93;100.00;101437.19;5055679;28;19913;-35
2022/03/29 06:46:27;;;;;;;;;;;;;;;6.00;100.00;101437.25;5055104;28;20415;-35
2022/03/29 06:48:54;;;;;;;;;;;;;;;6.04;100.00;101429.66;5055242;28;19921;-35
2022/03/29 06:51:19;;;;;;;;;;;;;;;6.09;100.00;101441.50;5055659;28;19916;-35
2022/03/29 06:53:44;;;;;;;;;;;;;;;6.03;100.00;101436.06;5054977;28;19990;-35
2022/03/29 06:56:10;;;;;;;;;;;;;;;6.06;100.00;101427.66;5055832;28;20308;-35
2022/03/29 06:58:36;;;;;;;;;;;;;;;6.04;100.00;101432.34;5053756;28;19999;-35
2022/03/29 07:01:01;;;;;;;;;;;;;;;6.03;100.00;101436.06;5055805;28;19920;-35
2022/03/29 07:03:28;;;;;;;;;;;;;;;6.06;100.00;101433.03;5055349;28;19913;-35
2022/03/29 07:05:53;;;;;;;;;;;;;;;6.11;100.00;101425.22;5055368;28;20277;-35
2022/03/29 07:08:20;;;;;;;;;;;;;;;6.09;100.00;101433.44;5054659;28;19917;-35
2022/03/29 07:13:30;;;;;;;;;;;;;;;5.92;100.00;101432.84;5054553;28;19983;-35
2022/03/29 07:15:55;;;;;;;;;;;;;;;5.94;100.00;101427.28;5054578;28;19924;-35
2022/03/29 07:18:20;;;;;;;;;;;;;;;5.92;100.00;101430.16;5054459;28;19942;-35
2022/03/29 07:20:46;;;;;;;;;;;;;;;5.88;100.00;101431.50;5054762;28;20047;-35
2022/03/29 07:23:11;;;;;;;;;;;;;;;5.76;100.00;101435.69;5053176;28;19971;-35
2022/03/29 07:25:37;;;;;;;;;;;;;;;5.74;100.00;101432.34;5054534;28;19919;-34
2022/03/29 07:28:03;;;;;;;;;;;;;;;5.71;100.00;101430.03;5053026;28;20550;-34
2022/03/29 07:30:29;;;;;;;;;;;;;;;5.76;100.00;101432.13;5054604;28;19974;-34
2022/03/29 07:32:57;;;;;;;;;;;;;;;5.86;100.00;101438.91;5054141;28;19966;-34
2022/03/29 07:35:24;;;;;;;;;;;;;;;5.91;100.00;101433.84;5053978;28;19916;-35
2022/03/29 07:37:50;;;;;;;;;;;;;;;5.97;100.00;101437.66;5054141;28;19956;-35
2022/03/29 07:40:16;;;;;;;;;;;;;;;5.96;100.00;101432.47;5053755;28;19919;-34
2022/03/29 07:42:41;;;;;;;;;;;;;;;6.03;100.00;101446.81;5054192;28;20308;-35
2022/03/29 07:45:07;;;;;;;;;;;;;;;6.10;100.00;101440.50;5054248;28;19919;-35
2022/03/29 07:47:36;;;;;;;;;;;;;;;6.12;100.00;101443.00;5053838;28;19962;-35
2022/03/29 07:50:06;;;;;;;;;;;;;;;5.98;100.00;101446.53;5054614;28;19913;-35
2022/03/29 07:52:31;;;;;;;;;;;;;;;6.03;100.00;101452.16;5053494;28;20237;-35
2022/03/29 07:54:57;;;;;;;;;;;;;;;6.01;100.00;101443.47;5054234;28;19924;-35
2022/03/29 07:57:23;;;;;;;;;;;;;;;6.06;100.00;101443.75;5053664;28;19916;-35
2022/03/29 07:59:49;;;;;;;;;;;;;;;6.12;100.00;101441.16;5054398;28;20273;-35
2022/03/29 08:02:14;;;;;;;;;;;;;;;6.16;100.00;101439.75;5053820;28;19920;-34
2022/03/29 08:04:39;;;;;;;;;;;;;;;6.26;100.00;101433.25;5053659;28;19985;-35
2022/03/29 08:07:04;;;;;;;;;;;;;;;6.34;100.00;101433.97;5053766;28;19920;-35
2022/03/29 08:09:30;;;;;;;;;;;;;;;6.39;100.00;101434.25;5053799;28;19920;-35
2022/03/29 08:11:55;;;;;;;;;;;;;;;6.40;100.00;101432.41;5054002;28;19913;-35
2022/03/29 08:14:25;;;;;;;;;;;;;;;6.44;100.00;101439.91;5053919;28;19966;-35
2022/03/29 08:16:50;;;;;;;;;;;;;;;6.46;100.00;101437.00;5054217;28;20130;-35
2022/03/29 08:19:16;;;;;;;;;;;;;;;6.48;100.00;101445.69;5053425;28;20294;-35
2022/03/29 08:21:50;;;;;;;;;;;;;;;6.44;100.00;101442.59;5053666;28;20015;-35
2022/03/29 08:24:23;;;;;;;;;;;;;;;6.44;100.00;101439.91;5052768;28;19919;-35
2022/03/29 08:26:49;;;;;;;;;;;;;;;6.47;100.00;101432.47;5054122;28;19913;-35
2022/03/29 08:29:16;;;;;;;;;;;;;;;6.49;100.00;101430.41;5053321;28;19913;-35
2022/03/29 08:31:42;;;;;;;;;;;;;;;6.55;100.00;101424.28;5053983;28;19920;-34
2022/03/29 08:34:07;;;;;;;;;;;;;;;6.61;100.00;101420.84;5053137;28;19912;-35
2022/03/29 08:36:33;;;;;;;;;;;;;;;6.59;100.00;101433.66;5053688;28;19917;-34
2022/03/29 08:38:58;;;;;;;;;;;;;;;6.30;100.00;101427.31;5053120;28;19972;-35
2022/03/29 08:41:25;;;;;;;;;;;;;;;6.31;100.00;101434.34;5053429;28;20349;-34
2022/03/29 08:43:52;;;;;;;;;;;;;;;6.38;100.00;101424.50;5053037;28;20337;-34
2022/03/29 08:46:17;;;;;;;;;;;;;;;6.47;100.00;101427.09;5053339;28;19912;-35
2022/03/29 08:48:43;;;;;;;;;;;;;;;6.55;100.00;101424.28;5053419;28;19939;-35
2022/03/29 08:51:09;;;;;;;;;;;;;;;6.63;100.00;101424.16;5052900;28;19920;-35
2022/03/29 08:53:34;;;;;;;;;;;;;;;6.59;100.00;101430.97;5052863;28;19913;-35
2022/03/29 08:55:59;;;;;;;;;;;;;;;6.61;100.00;101431.59;5053611;28;20007;-34
2022/03/29 08:58:25;;;;;;;;;;;;;;;6.68;100.00;101432.47;5052677;28;19913;-34
2022/03/29 09:00:50;;;;;;;;;;;;;;;6.69;100.00;101431.47;5053262;28;19913;-34
2022/03/29 09:03:16;;;;;;;;;;;;;;;6.54;100.00;101427.97;5052950;28;19913;-35
2022/03/29 09:05:41;;;;;;;;;;;;;;;6.62;100.00;101420.63;5053243;28;19920;-34
2022/03/29 09:08:09;;;;;;;;;;;;;;;6.74;100.00;101412.91;5053305;28;19917;-35
2022/03/29 09:10:38;;;;;;;;;;;;;;;6.79;100.00;101417.72;5053405;28;19913;-35
2022/03/29 09:13:32;;;;;;;;;;;;;;;6.68;100.00;101419.88;5052464;28;19917;-35
2022/03/29 09:15:59;;;;;;;;;;;;;;;6.72;100.00;101414.94;5030892;28;19932;-35
2022/03/29 09:18:25;;;;;;;;;;;;;;;6.78;100.00;101418.72;5030986;28;20293;-35
2022/03/29 09:21:11;;;;;;;;;;;;;;;6.82;100.00;101414.63;5030671;28;19920;-35
2022/03/29 09:23:37;;;;;;;;;;;;;;;6.89;100.00;101416.38;5030383;28;20085;-35
2022/03/29 09:26:02;;;;;;;;;;;;;;;6.86;100.00;101418.59;5030723;28;19920;-35
2022/03/29 09:28:35;;;;;;;;;;;;;;;6.86;100.00;101426.66;5030397;28;19917;-35
2022/03/29 09:31:00;;;;;;;;;;;;;;;6.87;100.00;101418.41;5030943;28;19913;-35
2022/03/29 09:33:32;;;;;;;;;;;;;;;6.81;100.00;101423.72;5030435;28;19975;-35
2022/03/29 09:35:59;;;;;;;;;;;;;;;6.87;100.00;101415.72;5033133;28;19917;-35
2022/03/29 09:38:30;;;;;;;;;;;;;;;6.95;100.00;101414.75;5034555;28;19920;-35
2022/03/29 09:40:55;;;;;;;;;;;;;;;6.92;100.00;101420.50;5034595;28;20269;-35
2022/03/29 09:43:22;;;;;;;;;;;;;;;6.89;100.00;101416.38;5034069;28;19917;-35
2022/03/29 09:45:49;;;;;;;;;;;;;;;6.99;100.00;101421.44;5034093;28;19951;-35
2022/03/29 09:48:23;;;;;;;;;;;;;;;7.00;100.00;101414.19;5033983;28;19913;-35
2022/03/29 09:50:49;;;;;;;;;;;;;;;7.06;100.00;101408.84;5034167;28;19963;-34
2022/03/29 09:53:33;;;;;;;;;;;;;;;7.07;100.00;101407.81;5053248;28;19919;-35
2022/03/29 09:55:59;;;;;;;;;;;;;;;7.08;100.00;101406.81;5056716;28;19913;-35
2022/03/29 09:58:24;;;;;;;;;;;;;;;7.11;100.00;101401.03;5056509;28;19990;-35
2022/03/29 10:00:49;;;;;;;;;;;;;;;7.11;100.00;101400.22;5056083;28;19917;-35
2022/03/29 10:03:17;;;;;;;;;;;;;;;7.17;100.00;101399.41;5056146;28;20372;-34
2022/03/29 10:05:42;;;;;;;;;;;;;;;7.12;100.00;101389.25;5056303;28;19913;-35
2022/03/29 10:10:52;;;;;;;;;;;;;;;7.34;100.00;101386.53;5056086;28;19970;-34
2022/03/29 10:13:23;;;;;;;;;;;;;;;7.38;100.00;101383.25;5037977;28;19912;-35
2022/03/29 10:15:53;;;;;;;;;;;;;;;7.34;100.00;101376.59;5055818;28;19913;-35
2022/03/29 10:18:18;;;;;;;;;;;;;;;7.34;100.00;101365.81;5056013;28;19920;-35
2022/03/29 10:20:43;;;;;;;;;;;;;;;7.46;100.00;101371.47;5056556;28;19913;-34
2022/03/29 10:23:10;;;;;;;;;;;;;;;7.57;100.00;101372.81;5055646;28;19913;-34
2022/03/29 10:25:37;;;;;;;;;;;;;;;7.32;100.00;101367.03;5055925;28;19917;-35
2022/03/29 10:28:04;;;;;;;;;;;;;;;7.38;100.00;101372.47;5053971;28;20007;-35
2022/03/29 10:30:35;;;;;;;;;;;;;;;7.41;100.00;101366.69;5055830;28;20347;-35
2022/03/29 10:33:15;;;;;;;;;;;;;;;7.52;100.00;101367.19;5055649;28;19919;-35
2022/03/29 10:35:59;;;;;;;;;;;;;;;7.52;100.00;101369.88;5055699;28;20365;-35
2022/03/29 10:38:42;;;;;;;;;;;;;;;7.54;100.00;101367.81;5054999;28;20381;-35
2022/03/29 10:41:28;;;;;;;;;;;;;;;7.46;100.00;101371.47;5055351;28;20352;-35
2022/03/29 10:43:53;;;;;;;;;;;;;;;7.46;100.00;101369.63;5054988;28;19956;-35
2022/03/29 10:46:23;;;;;;;;;;;;;;;7.55;100.00;101362.22;5055068;28;19963;-35
2022/03/29 10:49:07;;;;;;;;;;;;;;;7.67;100.00;101363.34;5054945;28;19952;-35
2022/03/29 10:51:32;;;;;;;;;;;;;;;7.78;99.61;101353.84;5055898;28;19917;-34
2022/03/29 10:54:18;;;;;;;;;;;;;;;7.69;100.00;101363.13;5054737;28;19935;-36
2022/03/29 10:56:57;;;;;;;;;;;;;;;7.87;98.97;101359.91;5055207;28;19974;-35
2022/03/29 10:59:22;;;;;;;;;;;;;;;7.83;99.68;101362.16;5054896;28;19921;-35
2022/03/29 11:02:06;;;;;;;;;;;;;;;7.95;99.53;101357.88;5054870;28;19951;-35
2022/03/29 11:04:31;;;;;;;;;;;;;;;7.98;98.83;101357.47;5054855;28;19979;-35
2022/03/29 11:07:14;;;;;;;;;;;;;;;7.92;98.17;101344.81;5054640;28;19990;-35
2022/03/29 11:09:40;;;;;;;;;;;;;;;7.95;97.92;101332.78;5054738;28;19971;-35
2022/03/29 11:12:06;;;;;;;;;;;;;;;8.10;97.62;101332.63;5054908;28;20005;-35
2022/03/29 11:14:35;;;;;;;;;;;;;;;8.07;96.91;101335.75;5054536;28;20375;-35
2022/03/29 11:17:01;;;;;;;;;;;;;;;8.12;96.16;101325.19;5055210;28;20246;-35
2022/03/29 11:19:38;;;;;;;;;;;;;;;8.26;96.58;101334.97;5054901;28;20003;-35
2022/03/29 11:22:21;;;;;;;;;;;;;;;8.33;95.61;101319.63;5054201;28;19924;-35
2022/03/29 11:24:47;;;;;;;;;;;;;;;8.42;95.05;101321.13;5054113;28;19919;-35
2022/03/29 11:27:19;;;;;;;;;;;;;;;8.49;94.78;101321.13;5054384;28;19917;-35
2022/03/29 11:29:45;;;;;;;;;;;;;;;8.69;94.99;101311.22;5053985;28;20007;-35
2022/03/29 11:32:14;;;;;;;;;;;;;;;8.96;95.26;101311.19;5054605;28;19951;-35
2022/03/29 11:34:40;;;;;;;;;;;;;;;9.00;92.17;101307.88;5054191;28;19959;-35
2022/03/29 11:37:05;;;;;;;;;;;;;;;9.11;91.30;101298.31;5053914;28;19928;-35
2022/03/29 11:39:31;;;;;;;;;;;;;;;9.24;90.34;101292.06;5054151;28;19913;-35
2022/03/29 11:41:56;;;;;;;;;;;;;;;9.44;89.58;101292.84;5054155;28;20427;-35
2022/03/29 11:44:23;;;;;;;;;;;;;;;9.64;89.58;101291.94;5054501;28;19912;-35
2022/03/29 11:46:50;;;;;;;;;;;;;;;9.79;88.35;101284.41;5054372;28;19919;-35
2022/03/29 11:49:19;;;;;;;;;;;;;;;9.81;85.61;101285.03;5053617;28;19912;-35
2022/03/29 11:52:00;;;;;;;;;;;;;;;9.95;84.98;101283.06;5053905;28;19959;-35
2022/03/29 11:54:25;;;;;;;;;;;;;;;10.09;85.86;101278.41;5053327;28;20015;-35
2022/03/29 11:56:51;;;;;;;;;;;;;;;10.22;84.61;101275.63;5054090;28;20015;-35
2022/03/29 11:59:16;;;;;;;;;;;;;;;10.37;84.24;101265.38;5053050;28;19977;-35
2022/03/29 12:01:41;;;;;;;;;;;;;;;10.39;84.63;101263.25;5053860;28;19913;-35
2022/03/29 12:04:07;;;;;;;;;;;;;;;10.52;84.86;101256.94;5053768;28;19919;-35
2022/03/29 12:06:45;;;;;;;;;;;;;;;10.55;82.59;101265.44;5053975;28;19916;-35
2022/03/29 12:09:12;;;;;;;;;;;;;;;10.44;82.65;101251.78;5053941;28;20285;-35
2022/03/29 12:11:42;;;;;;;;;;;;;;;10.32;80.16;101257.91;5053530;28;20008;-35
2022/03/29 12:14:09;;;;;;;;;;;;;;;10.35;81.08;101250.44;5054045;28;19920;-36
2022/03/29 12:16:34;;;;;;;;;;;;;;;10.34;81.30;101248.75;5053510;28;19913;-35
2022/03/29 12:18:59;;;;;;;;;;;;;;;10.39;81.13;101241.63;5053564;28;19920;-35
2022/03/29 12:21:25;;;;;;;;;;;;;;;10.28;78.11;101245.06;5054396;28;19912;-36
2022/03/29 12:24:06;;;;;;;;;;;;;;;10.18;78.97;101233.88;5053155;28;19920;-35
2022/03/29 12:26:32;;;;;;;;;;;;;;;10.25;80.31;101234.69;5053156;28;19943;-35
2022/03/29 12:28:58;;;;;;;;;;;;;;;10.36;81.13;101225.88;5053418;28;19942;-36
2022/03/29 12:31:27;;;;;;;;;;;;;;;10.44;79.03;101233.72;5053886;28;19913;-35
2022/03/29 12:33:52;;;;;;;;;;;;;;;10.52;78.21;101221.78;5053450;28;20341;-35
2022/03/29 12:36:18;;;;;;;;;;;;;;;10.70;77.96;101218.31;5052998;28;19971;-36
2022/03/29 12:38:48;;;;;;;;;;;;;;;10.94;78.95;101217.44;5053827;28;19944;-35
2022/03/29 12:41:14;;;;;;;;;;;;;;;11.16;73.56;101215.09;5053398;28;19913;-36
2022/03/29 12:43:51;;;;;;;;;;;;;;;10.97;72.35;101205.31;5052914;28;19913;-35
2022/03/29 12:46:17;;;;;;;;;;;;;;;11.20;72.02;101201.94;5053272;28;19920;-35